sensor_id;sensor_type;location;lat;lon;timestamp;P1;durP1;ratioP1;P2;durP2;ratioP2
31018;SDS011;17689;45.610;5.858;2022-09-29T00:00:24;8.73;;;5.77;;
31018;SDS011;17689;45.610;5.858;2022-09-29T00:02:53;8.57;;;6.20;;
31018;SDS011;17689;45.610;5.858;2022-09-29T00:05:19;6.47;;;5.27;;
31018;SDS011;17689;45.610;5.858;2022-09-29T00:07:45;10.60;;;5.77;;
31018;SDS011;17689;45.610;5.858;2022-09-29T00:10:12;8.87;;;5.40;;
31018;SDS011;17689;45.610;5.858;2022-09-29T00:12:38;5.50;;;4.97;;
31018;SDS011;17689;45.610;5.858;2022-09-29T00:15:05;6.23;;;5.30;;
31018;SDS011;17689;45.610;5.858;2022-09-29T00:17:31;5.87;;;5.27;;
31018;SDS011;17689;45.610;5.858;2022-09-29T00:19:57;5.90;;;5.07;;
31018;SDS011;17689;45.610;5.858;2022-09-29T00:22:24;6.70;;;5.17;;
31018;SDS011;17689;45.610;5.858;2022-09-29T00:24:50;8.43;;;5.20;;
31018;SDS011;17689;45.610;5.858;2022-09-29T00:27:16;7.07;;;5.63;;
31018;SDS011;17689;45.610;5.858;2022-09-29T00:29:43;7.13;;;5.63;;
31018;SDS011;17689;45.610;5.858;2022-09-29T00:32:09;8.60;;;6.00;;
31018;SDS011;17689;45.610;5.858;2022-09-29T00:34:35;7.93;;;6.03;;
31018;SDS011;17689;45.610;5.858;2022-09-29T00:37:02;6.73;;;6.03;;
31018;SDS011;17689;45.610;5.858;2022-09-29T00:39:28;6.57;;;5.30;;
31018;SDS011;17689;45.610;5.858;2022-09-29T00:41:54;6.23;;;4.40;;
31018;SDS011;17689;45.610;5.858;2022-09-29T00:47:00;7.90;;;4.00;;
31018;SDS011;17689;45.610;5.858;2022-09-29T00:49:28;3.77;;;2.80;;
31018;SDS011;17689;45.610;5.858;2022-09-29T00:52:13;4.63;;;3.00;;
31018;SDS011;17689;45.610;5.858;2022-09-29T00:54:42;4.43;;;2.60;;
31018;SDS011;17689;45.610;5.858;2022-09-29T00:57:10;3.27;;;2.20;;
31018;SDS011;17689;45.610;5.858;2022-09-29T00:59:52;2.47;;;2.10;;
31018;SDS011;17689;45.610;5.858;2022-09-29T01:02:20;3.03;;;2.50;;
31018;SDS011;17689;45.610;5.858;2022-09-29T01:04:47;2.43;;;2.23;;
31018;SDS011;17689;45.610;5.858;2022-09-29T01:07:16;2.30;;;2.00;;
31018;SDS011;17689;45.610;5.858;2022-09-29T01:09:43;4.77;;;2.43;;
31018;SDS011;17689;45.610;5.858;2022-09-29T01:12:09;4.13;;;2.20;;
31018;SDS011;17689;45.610;5.858;2022-09-29T01:14:36;3.73;;;1.93;;
31018;SDS011;17689;45.610;5.858;2022-09-29T01:17:03;2.17;;;1.90;;
31018;SDS011;17689;45.610;5.858;2022-09-29T01:22:03;1.80;;;1.60;;
31018;SDS011;17689;45.610;5.858;2022-09-29T01:30:04;2.60;;;1.90;;
31018;SDS011;17689;45.610;5.858;2022-09-29T01:32:39;3.10;;;2.00;;
31018;SDS011;17689;45.610;5.858;2022-09-29T01:43:10;2.93;;;1.70;;
31018;SDS011;17689;45.610;5.858;2022-09-29T01:45:50;2.87;;;1.80;;
31018;SDS011;17689;45.610;5.858;2022-09-29T01:48:20;3.20;;;1.90;;
31018;SDS011;17689;45.610;5.858;2022-09-29T01:50:49;2.87;;;1.70;;
31018;SDS011;17689;45.610;5.858;2022-09-29T01:53:24;2.70;;;1.80;;
31018;SDS011;17689;45.610;5.858;2022-09-29T01:55:53;1.83;;;1.73;;
31018;SDS011;17689;45.610;5.858;2022-09-29T01:58:35;3.10;;;1.80;;
31018;SDS011;17689;45.610;5.858;2022-09-29T02:01:04;2.13;;;1.80;;
31018;SDS011;17689;45.610;5.858;2022-09-29T02:03:34;1.67;;;1.57;;
31018;SDS011;17689;45.610;5.858;2022-09-29T02:06:02;2.53;;;1.87;;
31018;SDS011;17689;45.610;5.858;2022-09-29T02:08:32;2.93;;;2.00;;
31018;SDS011;17689;45.610;5.858;2022-09-29T02:11:05;2.60;;;2.00;;
31018;SDS011;17689;45.610;5.858;2022-09-29T02:13:40;4.43;;;1.90;;
31018;SDS011;17689;45.610;5.858;2022-09-29T02:16:08;2.63;;;1.80;;
31018;SDS011;17689;45.610;5.858;2022-09-29T02:18:39;2.80;;;2.20;;
31018;SDS011;17689;45.610;5.858;2022-09-29T02:21:07;2.73;;;1.97;;
31018;SDS011;17689;45.610;5.858;2022-09-29T02:23:33;2.57;;;2.10;;
31018;SDS011;17689;45.610;5.858;2022-09-29T02:26:00;2.67;;;1.60;;
31018;SDS011;17689;45.610;5.858;2022-09-29T02:28:27;1.73;;;1.53;;
31018;SDS011;17689;45.610;5.858;2022-09-29T02:30:53;3.30;;;1.40;;
31018;SDS011;17689;45.610;5.858;2022-09-29T02:33:21;2.50;;;1.30;;
31018;SDS011;17689;45.610;5.858;2022-09-29T02:38:20;3.13;;;1.57;;
31018;SDS011;17689;45.610;5.858;2022-09-29T02:51:49;2.17;;;1.20;;
31018;SDS011;17689;45.610;5.858;2022-09-29T02:54:24;2.17;;;1.23;;
31018;SDS011;17689;45.610;5.858;2022-09-29T02:59:48;0.77;;;0.77;;
31018;SDS011;17689;45.610;5.858;2022-09-29T03:02:21;2.77;;;1.10;;
31018;SDS011;17689;45.610;5.858;2022-09-29T03:04:48;2.30;;;1.10;;
31018;SDS011;17689;45.610;5.858;2022-09-29T03:07:14;2.70;;;1.00;;
31018;SDS011;17689;45.610;5.858;2022-09-29T03:09:40;7.03;;;1.70;;
31018;SDS011;17689;45.610;5.858;2022-09-29T03:12:06;3.10;;;1.10;;
31018;SDS011;17689;45.610;5.858;2022-09-29T03:14:33;1.83;;;1.10;;
31018;SDS011;17689;45.610;5.858;2022-09-29T03:16:59;2.10;;;0.90;;
31018;SDS011;17689;45.610;5.858;2022-09-29T03:19:25;0.60;;;0.60;;
31018;SDS011;17689;45.610;5.858;2022-09-29T03:21:52;3.53;;;0.90;;
31018;SDS011;17689;45.610;5.858;2022-09-29T03:24:18;0.70;;;0.70;;
31018;SDS011;17689;45.610;5.858;2022-09-29T03:26:44;1.10;;;1.00;;
31018;SDS011;17689;45.610;5.858;2022-09-29T03:29:10;0.70;;;0.70;;
31018;SDS011;17689;45.610;5.858;2022-09-29T03:31:38;1.73;;;0.83;;
31018;SDS011;17689;45.610;5.858;2022-09-29T03:34:04;0.87;;;0.73;;
31018;SDS011;17689;45.610;5.858;2022-09-29T03:36:31;1.63;;;0.80;;
31018;SDS011;17689;45.610;5.858;2022-09-29T03:38:57;0.50;;;0.50;;
31018;SDS011;17689;45.610;5.858;2022-09-29T03:41:23;1.00;;;0.70;;
31018;SDS011;17689;45.610;5.858;2022-09-29T03:43:49;0.70;;;0.70;;
31018;SDS011;17689;45.610;5.858;2022-09-29T03:46:15;0.60;;;0.60;;
31018;SDS011;17689;45.610;5.858;2022-09-29T03:48:42;0.80;;;0.80;;
31018;SDS011;17689;45.610;5.858;2022-09-29T03:51:09;0.87;;;0.87;;
31018;SDS011;17689;45.610;5.858;2022-09-29T03:53:35;1.40;;;0.80;;
31018;SDS011;17689;45.610;5.858;2022-09-29T03:56:01;1.40;;;0.90;;
31018;SDS011;17689;45.610;5.858;2022-09-29T03:58:28;1.27;;;0.80;;
31018;SDS011;17689;45.610;5.858;2022-09-29T04:00:55;1.67;;;0.83;;
31018;SDS011;17689;45.610;5.858;2022-09-29T04:03:21;0.70;;;0.70;;
31018;SDS011;17689;45.610;5.858;2022-09-29T04:05:47;1.50;;;0.70;;
31018;SDS011;17689;45.610;5.858;2022-09-29T04:08:14;0.50;;;0.50;;
31018;SDS011;17689;45.610;5.858;2022-09-29T04:10:40;1.10;;;0.53;;
31018;SDS011;17689;45.610;5.858;2022-09-29T04:13:07;1.13;;;0.80;;
31018;SDS011;17689;45.610;5.858;2022-09-29T04:15:33;0.60;;;0.60;;
31018;SDS011;17689;45.610;5.858;2022-09-29T04:17:59;0.77;;;0.77;;
31018;SDS011;17689;45.610;5.858;2022-09-29T04:20:26;1.07;;;0.90;;
31018;SDS011;17689;45.610;5.858;2022-09-29T04:22:52;2.00;;;0.80;;
31018;SDS011;17689;45.610;5.858;2022-09-29T04:25:18;0.90;;;0.80;;
31018;SDS011;17689;45.610;5.858;2022-09-29T04:27:44;2.73;;;0.70;;
31018;SDS011;17689;45.610;5.858;2022-09-29T04:30:11;0.60;;;0.60;;
31018;SDS011;17689;45.610;5.858;2022-09-29T04:32:37;3.97;;;1.10;;
31018;SDS011;17689;45.610;5.858;2022-09-29T04:35:03;0.70;;;0.70;;
31018;SDS011;17689;45.610;5.858;2022-09-29T04:37:29;1.27;;;0.80;;
31018;SDS011;17689;45.610;5.858;2022-09-29T04:39:56;1.30;;;0.80;;
31018;SDS011;17689;45.610;5.858;2022-09-29T04:42:22;0.93;;;0.70;;
31018;SDS011;17689;45.610;5.858;2022-09-29T04:44:49;1.23;;;0.90;;
31018;SDS011;17689;45.610;5.858;2022-09-29T04:47:15;0.80;;;0.80;;
31018;SDS011;17689;45.610;5.858;2022-09-29T04:49:42;0.77;;;0.70;;
31018;SDS011;17689;45.610;5.858;2022-09-29T04:52:10;1.93;;;0.80;;
31018;SDS011;17689;45.610;5.858;2022-09-29T04:54:36;1.50;;;0.60;;
31018;SDS011;17689;45.610;5.858;2022-09-29T04:57:02;0.70;;;0.70;;
31018;SDS011;17689;45.610;5.858;2022-09-29T04:59:28;0.93;;;0.93;;
31018;SDS011;17689;45.610;5.858;2022-09-29T05:01:55;1.00;;;0.90;;
31018;SDS011;17689;45.610;5.858;2022-09-29T05:04:21;1.53;;;0.70;;
31018;SDS011;17689;45.610;5.858;2022-09-29T05:06:47;1.17;;;0.80;;
31018;SDS011;17689;45.610;5.858;2022-09-29T05:09:14;1.20;;;0.70;;
31018;SDS011;17689;45.610;5.858;2022-09-29T05:11:40;1.17;;;0.80;;
31018;SDS011;17689;45.610;5.858;2022-09-29T05:14:06;0.60;;;0.60;;
31018;SDS011;17689;45.610;5.858;2022-09-29T05:16:32;0.80;;;0.80;;
31018;SDS011;17689;45.610;5.858;2022-09-29T05:18:58;1.97;;;0.90;;
31018;SDS011;17689;45.610;5.858;2022-09-29T05:21:24;0.80;;;0.80;;
31018;SDS011;17689;45.610;5.858;2022-09-29T05:23:51;0.90;;;0.90;;
31018;SDS011;17689;45.610;5.858;2022-09-29T05:26:17;2.73;;;0.90;;
31018;SDS011;17689;45.610;5.858;2022-09-29T05:28:44;1.50;;;0.80;;
31018;SDS011;17689;45.610;5.858;2022-09-29T05:31:11;2.80;;;0.77;;
31018;SDS011;17689;45.610;5.858;2022-09-29T05:33:37;0.70;;;0.70;;
31018;SDS011;17689;45.610;5.858;2022-09-29T05:36:04;0.90;;;0.90;;
31018;SDS011;17689;45.610;5.858;2022-09-29T05:38:31;0.83;;;0.83;;
31018;SDS011;17689;45.610;5.858;2022-09-29T05:40:57;1.37;;;0.90;;
31018;SDS011;17689;45.610;5.858;2022-09-29T05:43:23;1.10;;;0.73;;
31018;SDS011;17689;45.610;5.858;2022-09-29T05:45:50;1.10;;;0.90;;
31018;SDS011;17689;45.610;5.858;2022-09-29T05:48:16;0.80;;;0.80;;
31018;SDS011;17689;45.610;5.858;2022-09-29T05:50:42;2.97;;;1.00;;
31018;SDS011;17689;45.610;5.858;2022-09-29T05:53:09;0.90;;;0.90;;
31018;SDS011;17689;45.610;5.858;2022-09-29T05:55:36;1.90;;;0.93;;
31018;SDS011;17689;45.610;5.858;2022-09-29T05:58:03;1.57;;;1.27;;
31018;SDS011;17689;45.610;5.858;2022-09-29T06:00:29;6.03;;;1.40;;
31018;SDS011;17689;45.610;5.858;2022-09-29T06:02:59;2.30;;;0.97;;
31018;SDS011;17689;45.610;5.858;2022-09-29T06:05:25;1.23;;;1.07;;
31018;SDS011;17689;45.610;5.858;2022-09-29T06:07:52;1.07;;;0.90;;
31018;SDS011;17689;45.610;5.858;2022-09-29T06:10:18;1.30;;;1.00;;
31018;SDS011;17689;45.610;5.858;2022-09-29T06:12:44;2.83;;;1.20;;
31018;SDS011;17689;45.610;5.858;2022-09-29T06:15:11;1.43;;;1.10;;
31018;SDS011;17689;45.610;5.858;2022-09-29T06:17:37;1.53;;;1.20;;
31018;SDS011;17689;45.610;5.858;2022-09-29T06:20:04;3.50;;;1.63;;
31018;SDS011;17689;45.610;5.858;2022-09-29T06:22:33;4.53;;;1.60;;
31018;SDS011;17689;45.610;5.858;2022-09-29T06:24:59;3.80;;;1.70;;
31018;SDS011;17689;45.610;5.858;2022-09-29T06:27:26;2.93;;;1.80;;
31018;SDS011;17689;45.610;5.858;2022-09-29T06:29:52;2.70;;;1.97;;
31018;SDS011;17689;45.610;5.858;2022-09-29T06:32:18;3.47;;;1.90;;
31018;SDS011;17689;45.610;5.858;2022-09-29T06:34:44;3.67;;;2.43;;
31018;SDS011;17689;45.610;5.858;2022-09-29T06:37:29;2.60;;;1.97;;
31018;SDS011;17689;45.610;5.858;2022-09-29T06:40:04;4.13;;;2.37;;
31018;SDS011;17689;45.610;5.858;2022-09-29T06:42:32;3.90;;;2.10;;
31018;SDS011;17689;45.610;5.858;2022-09-29T06:44:58;1.90;;;1.80;;
31018;SDS011;17689;45.610;5.858;2022-09-29T06:47:24;3.90;;;3.60;;
31018;SDS011;17689;45.610;5.858;2022-09-29T06:49:51;4.97;;;3.80;;
31018;SDS011;17689;45.610;5.858;2022-09-29T06:52:17;2.40;;;1.90;;
31018;SDS011;17689;45.610;5.858;2022-09-29T06:54:43;2.53;;;2.33;;
31018;SDS011;17689;45.610;5.858;2022-09-29T06:57:09;2.10;;;1.90;;
31018;SDS011;17689;45.610;5.858;2022-09-29T06:59:36;1.40;;;1.20;;
31018;SDS011;17689;45.610;5.858;2022-09-29T07:02:02;0.93;;;0.90;;
31018;SDS011;17689;45.610;5.858;2022-09-29T07:04:28;1.53;;;1.07;;
31018;SDS011;17689;45.610;5.858;2022-09-29T07:06:54;1.30;;;0.97;;
31018;SDS011;17689;45.610;5.858;2022-09-29T07:09:20;1.83;;;0.97;;
31018;SDS011;17689;45.610;5.858;2022-09-29T07:11:48;1.47;;;0.90;;
31018;SDS011;17689;45.610;5.858;2022-09-29T07:14:15;1.20;;;1.10;;
31018;SDS011;17689;45.610;5.858;2022-09-29T07:16:42;2.03;;;1.10;;
31018;SDS011;17689;45.610;5.858;2022-09-29T07:19:08;1.83;;;0.80;;
31018;SDS011;17689;45.610;5.858;2022-09-29T07:21:34;1.33;;;0.90;;
31018;SDS011;17689;45.610;5.858;2022-09-29T07:24:01;1.10;;;1.00;;
31018;SDS011;17689;45.610;5.858;2022-09-29T07:26:27;2.20;;;0.93;;
31018;SDS011;17689;45.610;5.858;2022-09-29T07:28:53;1.03;;;0.80;;
31018;SDS011;17689;45.610;5.858;2022-09-29T07:31:20;0.80;;;0.80;;
31018;SDS011;17689;45.610;5.858;2022-09-29T07:33:47;1.10;;;1.00;;
31018;SDS011;17689;45.610;5.858;2022-09-29T07:36:14;0.83;;;0.83;;
31018;SDS011;17689;45.610;5.858;2022-09-29T07:38:41;0.57;;;0.57;;
31018;SDS011;17689;45.610;5.858;2022-09-29T07:41:08;1.00;;;0.90;;
31018;SDS011;17689;45.610;5.858;2022-09-29T07:43:37;1.13;;;1.00;;
31018;SDS011;17689;45.610;5.858;2022-09-29T07:46:04;1.30;;;0.87;;
31018;SDS011;17689;45.610;5.858;2022-09-29T07:48:31;1.20;;;1.10;;
31018;SDS011;17689;45.610;5.858;2022-09-29T07:51:07;0.77;;;0.77;;
31018;SDS011;17689;45.610;5.858;2022-09-29T07:53:35;0.87;;;0.87;;
31018;SDS011;17689;45.610;5.858;2022-09-29T07:56:11;0.80;;;0.80;;
31018;SDS011;17689;45.610;5.858;2022-09-29T07:58:38;1.57;;;1.10;;
31018;SDS011;17689;45.610;5.858;2022-09-29T08:01:07;2.13;;;1.27;;
31018;SDS011;17689;45.610;5.858;2022-09-29T08:03:35;1.43;;;1.30;;
31018;SDS011;17689;45.610;5.858;2022-09-29T08:06:01;1.50;;;1.40;;
31018;SDS011;17689;45.610;5.858;2022-09-29T08:08:28;2.13;;;1.50;;
31018;SDS011;17689;45.610;5.858;2022-09-29T08:11:07;2.93;;;1.30;;
31018;SDS011;17689;45.610;5.858;2022-09-29T08:13:34;1.70;;;1.10;;
31018;SDS011;17689;45.610;5.858;2022-09-29T08:16:02;1.10;;;1.00;;
31018;SDS011;17689;45.610;5.858;2022-09-29T08:18:28;1.87;;;1.10;;
31018;SDS011;17689;45.610;5.858;2022-09-29T08:20:55;2.40;;;1.20;;
31018;SDS011;17689;45.610;5.858;2022-09-29T08:23:22;1.83;;;1.20;;
31018;SDS011;17689;45.610;5.858;2022-09-29T08:25:49;1.60;;;1.43;;
31018;SDS011;17689;45.610;5.858;2022-09-29T08:28:16;2.33;;;1.50;;
31018;SDS011;17689;45.610;5.858;2022-09-29T08:30:42;1.90;;;1.30;;
31018;SDS011;17689;45.610;5.858;2022-09-29T08:33:08;2.00;;;1.30;;
31018;SDS011;17689;45.610;5.858;2022-09-29T08:35:39;2.07;;;1.60;;
31018;SDS011;17689;45.610;5.858;2022-09-29T08:38:05;3.93;;;1.60;;
31018;SDS011;17689;45.610;5.858;2022-09-29T08:40:31;1.80;;;1.37;;
31018;SDS011;17689;45.610;5.858;2022-09-29T08:45:47;3.10;;;2.00;;
31018;SDS011;17689;45.610;5.858;2022-09-29T08:48:16;3.03;;;1.80;;
31018;SDS011;17689;45.610;5.858;2022-09-29T08:50:49;2.47;;;1.73;;
31018;SDS011;17689;45.610;5.858;2022-09-29T08:53:17;2.07;;;1.70;;
31018;SDS011;17689;45.610;5.858;2022-09-29T08:55:47;4.53;;;2.07;;
31018;SDS011;17689;45.610;5.858;2022-09-29T08:58:17;5.27;;;1.63;;
31018;SDS011;17689;45.610;5.858;2022-09-29T09:00:50;3.90;;;1.77;;
31018;SDS011;17689;45.610;5.858;2022-09-29T09:16:19;1.63;;;1.53;;
31018;SDS011;17689;45.610;5.858;2022-09-29T09:23:55;1.70;;;1.60;;
31018;SDS011;17689;45.610;5.858;2022-09-29T09:28:57;2.23;;;1.43;;
31018;SDS011;17689;45.610;5.858;2022-09-29T09:36:44;2.37;;;1.60;;
31018;SDS011;17689;45.610;5.858;2022-09-29T09:39:14;1.70;;;1.53;;
31018;SDS011;17689;45.610;5.858;2022-09-29T09:41:43;3.00;;;1.97;;
31018;SDS011;17689;45.610;5.858;2022-09-29T09:44:18;1.93;;;1.73;;
31018;SDS011;17689;45.610;5.858;2022-09-29T09:51:58;1.50;;;1.40;;
31018;SDS011;17689;45.610;5.858;2022-09-29T09:54:35;1.80;;;1.37;;
31018;SDS011;17689;45.610;5.858;2022-09-29T09:57:09;3.33;;;1.40;;
31018;SDS011;17689;45.610;5.858;2022-09-29T09:59:50;1.30;;;1.20;;
31018;SDS011;17689;45.610;5.858;2022-09-29T10:02:20;1.70;;;1.30;;
31018;SDS011;17689;45.610;5.858;2022-09-29T10:04:47;2.30;;;1.40;;
31018;SDS011;17689;45.610;5.858;2022-09-29T10:07:14;2.00;;;1.20;;
31018;SDS011;17689;45.610;5.858;2022-09-29T10:09:41;5.43;;;1.70;;
31018;SDS011;17689;45.610;5.858;2022-09-29T10:12:13;1.80;;;1.30;;
31018;SDS011;17689;45.610;5.858;2022-09-29T10:14:40;1.20;;;1.10;;
31018;SDS011;17689;45.610;5.858;2022-09-29T10:17:10;1.60;;;1.30;;
31018;SDS011;17689;45.610;5.858;2022-09-29T10:22:23;1.60;;;1.27;;
31018;SDS011;17689;45.610;5.858;2022-09-29T10:27:34;2.23;;;1.20;;
31018;SDS011;17689;45.610;5.858;2022-09-29T10:30:01;2.60;;;1.50;;
31018;SDS011;17689;45.610;5.858;2022-09-29T10:32:28;3.37;;;1.30;;
31018;SDS011;17689;45.610;5.858;2022-09-29T10:35:23;2.33;;;1.40;;
31018;SDS011;17689;45.610;5.858;2022-09-29T10:37:57;2.40;;;1.30;;
31018;SDS011;17689;45.610;5.858;2022-09-29T10:40:25;2.40;;;1.10;;
31018;SDS011;17689;45.610;5.858;2022-09-29T10:42:51;1.23;;;0.93;;
31018;SDS011;17689;45.610;5.858;2022-09-29T10:45:18;1.00;;;0.90;;
31018;SDS011;17689;45.610;5.858;2022-09-29T10:47:46;1.70;;;1.37;;
31018;SDS011;17689;45.610;5.858;2022-09-29T10:50:14;0.87;;;0.83;;
31018;SDS011;17689;45.610;5.858;2022-09-29T10:52:54;1.40;;;1.10;;
31018;SDS011;17689;45.610;5.858;2022-09-29T10:55:46;1.10;;;1.00;;
31018;SDS011;17689;45.610;5.858;2022-09-29T11:00:45;2.13;;;1.77;;
31018;SDS011;17689;45.610;5.858;2022-09-29T11:06:15;2.97;;;1.33;;
31018;SDS011;17689;45.610;5.858;2022-09-29T11:11:28;2.70;;;1.30;;
31018;SDS011;17689;45.610;5.858;2022-09-29T11:13:55;1.77;;;1.40;;
31018;SDS011;17689;45.610;5.858;2022-09-29T11:16:29;1.90;;;0.97;;
31018;SDS011;17689;45.610;5.858;2022-09-29T11:18:58;2.67;;;1.50;;
31018;SDS011;17689;45.610;5.858;2022-09-29T11:31:53;1.93;;;1.30;;
31018;SDS011;17689;45.610;5.858;2022-09-29T11:34:33;2.00;;;1.20;;
31018;SDS011;17689;45.610;5.858;2022-09-29T11:40:07;3.63;;;1.40;;
31018;SDS011;17689;45.610;5.858;2022-09-29T11:42:27;2.53;;;1.30;;
31018;SDS011;17689;45.610;5.858;2022-09-29T11:45:01;1.23;;;1.13;;
31018;SDS011;17689;45.610;5.858;2022-09-29T11:52:36;2.33;;;1.40;;
31018;SDS011;17689;45.610;5.858;2022-09-29T11:55:12;1.63;;;1.40;;
31018;SDS011;17689;45.610;5.858;2022-09-29T12:00:18;2.03;;;1.20;;
31018;SDS011;17689;45.610;5.858;2022-09-29T12:05:25;1.83;;;1.30;;
31018;SDS011;17689;45.610;5.858;2022-09-29T12:16:15;2.77;;;1.60;;
31018;SDS011;17689;45.610;5.858;2022-09-29T12:21:08;1.90;;;1.30;;
31018;SDS011;17689;45.610;5.858;2022-09-29T12:23:36;1.43;;;1.33;;
31018;SDS011;17689;45.610;5.858;2022-09-29T12:26:08;1.50;;;1.40;;
31018;SDS011;17689;45.610;5.858;2022-09-29T12:33:51;4.10;;;1.50;;
31018;SDS011;17689;45.610;5.858;2022-09-29T12:36:39;4.60;;;1.40;;
31018;SDS011;17689;45.610;5.858;2022-09-29T12:42:11;2.50;;;1.10;;
31018;SDS011;17689;45.610;5.858;2022-09-29T12:45:01;1.37;;;1.27;;
31018;SDS011;17689;45.610;5.858;2022-09-29T12:52:28;1.40;;;1.27;;
31018;SDS011;17689;45.610;5.858;2022-09-29T12:54:59;2.33;;;1.40;;
31018;SDS011;17689;45.610;5.858;2022-09-29T12:57:29;1.83;;;1.40;;
31018;SDS011;17689;45.610;5.858;2022-09-29T13:26:00;1.30;;;1.20;;
31018;SDS011;17689;45.610;5.858;2022-09-29T13:28:32;1.13;;;1.03;;
31018;SDS011;17689;45.610;5.858;2022-09-29T13:31:03;2.43;;;1.20;;
31018;SDS011;17689;45.610;5.858;2022-09-29T13:33:30;1.33;;;1.20;;
31018;SDS011;17689;45.610;5.858;2022-09-29T13:35:56;1.30;;;1.20;;
31018;SDS011;17689;45.610;5.858;2022-09-29T13:38:24;1.77;;;1.47;;
31018;SDS011;17689;45.610;5.858;2022-09-29T13:51:47;2.50;;;1.13;;
31018;SDS011;17689;45.610;5.858;2022-09-29T13:54:22;2.37;;;1.70;;
31018;SDS011;17689;45.610;5.858;2022-09-29T13:57:03;1.50;;;1.40;;
31018;SDS011;17689;45.610;5.858;2022-09-29T13:59:30;2.57;;;1.47;;
31018;SDS011;17689;45.610;5.858;2022-09-29T14:01:57;1.93;;;1.30;;
31018;SDS011;17689;45.610;5.858;2022-09-29T14:04:33;2.27;;;1.57;;
31018;SDS011;17689;45.610;5.858;2022-09-29T14:07:01;2.87;;;1.60;;
31018;SDS011;17689;45.610;5.858;2022-09-29T14:09:35;3.87;;;1.47;;
31018;SDS011;17689;45.610;5.858;2022-09-29T14:12:04;2.57;;;1.20;;
31018;SDS011;17689;45.610;5.858;2022-09-29T14:14:33;2.50;;;1.27;;
31018;SDS011;17689;45.610;5.858;2022-09-29T14:17:03;5.20;;;1.47;;
31018;SDS011;17689;45.610;5.858;2022-09-29T14:19:41;6.70;;;1.60;;
31018;SDS011;17689;45.610;5.858;2022-09-29T14:25:20;4.90;;;1.53;;
31018;SDS011;17689;45.610;5.858;2022-09-29T14:32:52;2.60;;;1.63;;
31018;SDS011;17689;45.610;5.858;2022-09-29T14:35:35;1.60;;;1.50;;
31018;SDS011;17689;45.610;5.858;2022-09-29T14:40:34;1.43;;;1.10;;
31018;SDS011;17689;45.610;5.858;2022-09-29T14:43:11;3.10;;;1.60;;
31018;SDS011;17689;45.610;5.858;2022-09-29T14:45:51;2.60;;;1.40;;
31018;SDS011;17689;45.610;5.858;2022-09-29T14:48:42;2.43;;;1.40;;
31018;SDS011;17689;45.610;5.858;2022-09-29T14:51:36;1.97;;;1.60;;
31018;SDS011;17689;45.610;5.858;2022-09-29T15:00:17;1.80;;;1.50;;
31018;SDS011;17689;45.610;5.858;2022-09-29T15:02:47;2.07;;;1.40;;
31018;SDS011;17689;45.610;5.858;2022-09-29T15:05:35;1.67;;;1.53;;
31018;SDS011;17689;45.610;5.858;2022-09-29T15:08:02;3.50;;;1.50;;
31018;SDS011;17689;45.610;5.858;2022-09-29T15:10:30;2.10;;;1.53;;
31018;SDS011;17689;45.610;5.858;2022-09-29T15:13:16;3.47;;;1.70;;
31018;SDS011;17689;45.610;5.858;2022-09-29T15:15:45;3.03;;;1.50;;
31018;SDS011;17689;45.610;5.858;2022-09-29T15:26:12;4.97;;;1.90;;
31018;SDS011;17689;45.610;5.858;2022-09-29T15:28:39;4.00;;;1.80;;
31018;SDS011;17689;45.610;5.858;2022-09-29T15:31:08;1.70;;;1.60;;
31018;SDS011;17689;45.610;5.858;2022-09-29T15:33:36;2.93;;;1.80;;
31018;SDS011;17689;45.610;5.858;2022-09-29T15:38:30;2.60;;;1.77;;
31018;SDS011;17689;45.610;5.858;2022-09-29T15:41:00;3.73;;;1.47;;
31018;SDS011;17689;45.610;5.858;2022-09-29T15:43:28;3.57;;;1.60;;
31018;SDS011;17689;45.610;5.858;2022-09-29T15:45:56;2.10;;;1.90;;
31018;SDS011;17689;45.610;5.858;2022-09-29T15:48:23;1.50;;;1.40;;
31018;SDS011;17689;45.610;5.858;2022-09-29T15:50:50;3.63;;;1.80;;
31018;SDS011;17689;45.610;5.858;2022-09-29T15:53:20;4.27;;;1.70;;
31018;SDS011;17689;45.610;5.858;2022-09-29T15:55:48;1.93;;;1.50;;
31018;SDS011;17689;45.610;5.858;2022-09-29T16:01:00;1.97;;;1.50;;
31018;SDS011;17689;45.610;5.858;2022-09-29T16:03:34;2.30;;;1.50;;
31018;SDS011;17689;45.610;5.858;2022-09-29T16:06:13;2.13;;;1.63;;
31018;SDS011;17689;45.610;5.858;2022-09-29T16:08:44;1.60;;;1.50;;
31018;SDS011;17689;45.610;5.858;2022-09-29T16:11:19;2.63;;;1.70;;
31018;SDS011;17689;45.610;5.858;2022-09-29T16:13:50;2.70;;;1.70;;
31018;SDS011;17689;45.610;5.858;2022-09-29T16:16:23;3.10;;;1.80;;
31018;SDS011;17689;45.610;5.858;2022-09-29T16:18:50;2.73;;;1.73;;
31018;SDS011;17689;45.610;5.858;2022-09-29T16:21:18;1.73;;;1.50;;
31018;SDS011;17689;45.610;5.858;2022-09-29T16:23:50;1.83;;;1.63;;
31018;SDS011;17689;45.610;5.858;2022-09-29T16:26:18;2.23;;;1.53;;
31018;SDS011;17689;45.610;5.858;2022-09-29T16:31:44;2.03;;;1.80;;
31018;SDS011;17689;45.610;5.858;2022-09-29T16:36:46;4.13;;;2.13;;
31018;SDS011;17689;45.610;5.858;2022-09-29T16:39:15;2.90;;;1.90;;
31018;SDS011;17689;45.610;5.858;2022-09-29T16:41:41;2.60;;;1.90;;
31018;SDS011;17689;45.610;5.858;2022-09-29T16:44:23;1.93;;;1.67;;
31018;SDS011;17689;45.610;5.858;2022-09-29T16:49:16;2.03;;;1.50;;
31018;SDS011;17689;45.610;5.858;2022-09-29T16:51:44;3.57;;;1.57;;
31018;SDS011;17689;45.610;5.858;2022-09-29T16:54:15;1.97;;;1.77;;
31018;SDS011;17689;45.610;5.858;2022-09-29T16:56:42;5.47;;;3.70;;
31018;SDS011;17689;45.610;5.858;2022-09-29T16:59:10;8.43;;;4.27;;
31018;SDS011;17689;45.610;5.858;2022-09-29T17:01:38;3.40;;;2.30;;
31018;SDS011;17689;45.610;5.858;2022-09-29T17:04:05;3.60;;;1.90;;
31018;SDS011;17689;45.610;5.858;2022-09-29T17:06:31;5.53;;;2.10;;
31018;SDS011;17689;45.610;5.858;2022-09-29T17:09:01;4.47;;;2.43;;
31018;SDS011;17689;45.610;5.858;2022-09-29T17:11:32;3.37;;;3.03;;
31018;SDS011;17689;45.610;5.858;2022-09-29T17:13:59;2.47;;;2.23;;
31018;SDS011;17689;45.610;5.858;2022-09-29T17:16:25;4.63;;;3.40;;
31018;SDS011;17689;45.610;5.858;2022-09-29T17:18:53;4.33;;;2.53;;
31018;SDS011;17689;45.610;5.858;2022-09-29T17:21:21;2.80;;;2.20;;
31018;SDS011;17689;45.610;5.858;2022-09-29T17:23:47;1.77;;;1.67;;
31018;SDS011;17689;45.610;5.858;2022-09-29T17:26:56;4.77;;;1.60;;
31018;SDS011;17689;45.610;5.858;2022-09-29T17:29:22;2.50;;;1.50;;
31018;SDS011;17689;45.610;5.858;2022-09-29T17:31:48;3.50;;;1.70;;
31018;SDS011;17689;45.610;5.858;2022-09-29T17:34:14;3.17;;;1.73;;
31018;SDS011;17689;45.610;5.858;2022-09-29T17:36:41;3.40;;;1.60;;
31018;SDS011;17689;45.610;5.858;2022-09-29T17:39:08;1.67;;;1.40;;
31018;SDS011;17689;45.610;5.858;2022-09-29T17:41:34;1.60;;;1.30;;
31018;SDS011;17689;45.610;5.858;2022-09-29T17:44:00;2.70;;;1.37;;
31018;SDS011;17689;45.610;5.858;2022-09-29T17:46:30;1.43;;;1.30;;
31018;SDS011;17689;45.610;5.858;2022-09-29T17:48:56;3.10;;;1.50;;
31018;SDS011;17689;45.610;5.858;2022-09-29T17:51:22;4.37;;;1.93;;
31018;SDS011;17689;45.610;5.858;2022-09-29T17:53:48;3.27;;;1.70;;
31018;SDS011;17689;45.610;5.858;2022-09-29T17:56:24;2.40;;;1.20;;
31018;SDS011;17689;45.610;5.858;2022-09-29T17:58:53;1.97;;;1.50;;
31018;SDS011;17689;45.610;5.858;2022-09-29T18:01:22;4.43;;;1.57;;
31018;SDS011;17689;45.610;5.858;2022-09-29T18:03:50;1.77;;;1.20;;
31018;SDS011;17689;45.610;5.858;2022-09-29T18:06:18;1.40;;;1.30;;
31018;SDS011;17689;45.610;5.858;2022-09-29T18:08:46;1.60;;;1.40;;
31018;SDS011;17689;45.610;5.858;2022-09-29T18:11:15;2.03;;;1.57;;
31018;SDS011;17689;45.610;5.858;2022-09-29T18:13:42;3.77;;;1.60;;
31018;SDS011;17689;45.610;5.858;2022-09-29T18:16:10;5.60;;;2.70;;
31018;SDS011;17689;45.610;5.858;2022-09-29T18:18:37;3.43;;;1.97;;
31018;SDS011;17689;45.610;5.858;2022-09-29T18:21:04;3.30;;;2.10;;
31018;SDS011;17689;45.610;5.858;2022-09-29T18:23:32;7.70;;;2.13;;